sensor_id;sensor_type;location;lat;lon;timestamp;P1;durP1;ratioP1;P2;durP2;ratioP2
15240;SDS011;7723;52.170;9.978;2022-10-23T00:01:36;7.88;;;2.97;;
15240;SDS011;7723;52.170;9.978;2022-10-23T00:04:05;8.43;;;3.88;;
15240;SDS011;7723;52.170;9.978;2022-10-23T00:06:34;6.00;;;3.22;;
15240;SDS011;7723;52.170;9.978;2022-10-23T00:09:03;5.80;;;3.67;;
15240;SDS011;7723;52.170;9.978;2022-10-23T00:11:33;11.35;;;3.05;;
15240;SDS011;7723;52.170;9.978;2022-10-23T00:14:01;5.45;;;3.30;;
15240;SDS011;7723;52.170;9.978;2022-10-23T00:16:30;7.80;;;3.17;;
15240;SDS011;7723;52.170;9.978;2022-10-23T00:18:57;6.78;;;3.20;;
15240;SDS011;7723;52.170;9.978;2022-10-23T00:21:24;7.38;;;3.13;;
15240;SDS011;7723;52.170;9.978;2022-10-23T00:23:52;5.65;;;3.00;;
15240;SDS011;7723;52.170;9.978;2022-10-23T00:26:19;7.30;;;2.67;;
15240;SDS011;7723;52.170;9.978;2022-10-23T00:28:48;5.65;;;3.22;;
15240;SDS011;7723;52.170;9.978;2022-10-23T00:31:18;5.85;;;3.00;;
15240;SDS011;7723;52.170;9.978;2022-10-23T00:33:46;7.68;;;2.88;;
15240;SDS011;7723;52.170;9.978;2022-10-23T00:36:14;6.95;;;2.58;;
15240;SDS011;7723;52.170;9.978;2022-10-23T00:38:43;6.30;;;2.90;;
15240;SDS011;7723;52.170;9.978;2022-10-23T00:41:12;5.30;;;2.50;;
15240;SDS011;7723;52.170;9.978;2022-10-23T00:43:57;5.88;;;2.78;;
15240;SDS011;7723;52.170;9.978;2022-10-23T00:46:27;8.75;;;2.65;;
15240;SDS011;7723;52.170;9.978;2022-10-23T00:48:55;5.05;;;2.47;;
15240;SDS011;7723;52.170;9.978;2022-10-23T00:51:23;7.50;;;2.80;;
15240;SDS011;7723;52.170;9.978;2022-10-23T00:53:54;6.97;;;3.15;;
15240;SDS011;7723;52.170;9.978;2022-10-23T00:56:23;4.53;;;2.67;;
15240;SDS011;7723;52.170;9.978;2022-10-23T00:58:51;6.80;;;2.90;;
15240;SDS011;7723;52.170;9.978;2022-10-23T01:01:21;6.85;;;2.72;;
15240;SDS011;7723;52.170;9.978;2022-10-23T01:03:49;6.13;;;2.63;;
15240;SDS011;7723;52.170;9.978;2022-10-23T01:06:20;4.88;;;2.25;;
15240;SDS011;7723;52.170;9.978;2022-10-23T01:08:58;8.15;;;2.75;;
15240;SDS011;7723;52.170;9.978;2022-10-23T01:11:37;7.10;;;2.58;;
15240;SDS011;7723;52.170;9.978;2022-10-23T01:14:11;3.90;;;2.28;;
15240;SDS011;7723;52.170;9.978;2022-10-23T01:16:48;3.40;;;2.13;;
15240;SDS011;7723;52.170;9.978;2022-10-23T01:19:25;3.65;;;2.17;;
15240;SDS011;7723;52.170;9.978;2022-10-23T01:22:05;6.18;;;3.13;;
15240;SDS011;7723;52.170;9.978;2022-10-23T01:24:45;6.00;;;2.50;;
15240;SDS011;7723;52.170;9.978;2022-10-23T01:27:19;4.90;;;2.67;;
15240;SDS011;7723;52.170;9.978;2022-10-23T01:29:50;4.32;;;2.85;;
15240;SDS011;7723;52.170;9.978;2022-10-23T01:32:29;5.35;;;3.45;;
15240;SDS011;7723;52.170;9.978;2022-10-23T01:35:00;4.82;;;3.47;;
15240;SDS011;7723;52.170;9.978;2022-10-23T01:37:31;5.93;;;3.10;;
15240;SDS011;7723;52.170;9.978;2022-10-23T01:40:05;5.25;;;3.35;;
15240;SDS011;7723;52.170;9.978;2022-10-23T01:42:40;5.43;;;3.33;;
15240;SDS011;7723;52.170;9.978;2022-10-23T01:45:12;7.32;;;3.42;;
15240;SDS011;7723;52.170;9.978;2022-10-23T01:47:44;8.45;;;3.88;;
15240;SDS011;7723;52.170;9.978;2022-10-23T01:50:13;6.43;;;3.20;;
15240;SDS011;7723;52.170;9.978;2022-10-23T01:52:42;8.13;;;3.30;;
15240;SDS011;7723;52.170;9.978;2022-10-23T01:55:10;6.80;;;3.50;;
15240;SDS011;7723;52.170;9.978;2022-10-23T01:57:40;6.43;;;3.45;;
15240;SDS011;7723;52.170;9.978;2022-10-23T02:00:10;6.85;;;3.03;;
15240;SDS011;7723;52.170;9.978;2022-10-23T02:02:39;5.90;;;3.10;;
15240;SDS011;7723;52.170;9.978;2022-10-23T02:05:10;7.80;;;3.38;;
15240;SDS011;7723;52.170;9.978;2022-10-23T02:07:40;6.28;;;3.67;;
15240;SDS011;7723;52.170;9.978;2022-10-23T02:10:08;5.68;;;3.83;;
15240;SDS011;7723;52.170;9.978;2022-10-23T02:12:41;6.43;;;3.03;;
15240;SDS011;7723;52.170;9.978;2022-10-23T02:15:18;5.90;;;3.08;;
15240;SDS011;7723;52.170;9.978;2022-10-23T02:17:50;7.30;;;3.95;;
15240;SDS011;7723;52.170;9.978;2022-10-23T02:20:28;8.60;;;4.38;;
15240;SDS011;7723;52.170;9.978;2022-10-23T02:23:03;8.32;;;3.42;;
15240;SDS011;7723;52.170;9.978;2022-10-23T02:25:40;6.70;;;3.60;;
15240;SDS011;7723;52.170;9.978;2022-10-23T02:28:16;5.60;;;3.40;;
15240;SDS011;7723;52.170;9.978;2022-10-23T02:30:50;6.25;;;3.53;;
15240;SDS011;7723;52.170;9.978;2022-10-23T02:33:17;5.30;;;3.30;;
15240;SDS011;7723;52.170;9.978;2022-10-23T02:35:45;18.38;;;8.00;;
15240;SDS011;7723;52.170;9.978;2022-10-23T02:38:27;6.45;;;4.03;;
15240;SDS011;7723;52.170;9.978;2022-10-23T02:40:57;7.15;;;4.63;;
15240;SDS011;7723;52.170;9.978;2022-10-23T02:43:35;9.55;;;5.03;;
15240;SDS011;7723;52.170;9.978;2022-10-23T02:46:08;8.77;;;5.20;;
15240;SDS011;7723;52.170;9.978;2022-10-23T02:48:40;8.40;;;5.57;;
15240;SDS011;7723;52.170;9.978;2022-10-23T02:51:13;7.72;;;4.70;;
15240;SDS011;7723;52.170;9.978;2022-10-23T02:53:49;6.03;;;4.18;;
15240;SDS011;7723;52.170;9.978;2022-10-23T02:56:26;9.65;;;4.30;;
15240;SDS011;7723;52.170;9.978;2022-10-23T02:59:05;5.50;;;3.63;;
15240;SDS011;7723;52.170;9.978;2022-10-23T03:01:37;5.35;;;3.65;;
15240;SDS011;7723;52.170;9.978;2022-10-23T03:04:10;5.70;;;3.58;;
15240;SDS011;7723;52.170;9.978;2022-10-23T03:06:38;7.43;;;3.90;;
15240;SDS011;7723;52.170;9.978;2022-10-23T03:09:06;6.35;;;3.35;;
15240;SDS011;7723;52.170;9.978;2022-10-23T03:11:34;8.27;;;4.50;;
15240;SDS011;7723;52.170;9.978;2022-10-23T03:14:03;7.80;;;4.32;;
15240;SDS011;7723;52.170;9.978;2022-10-23T03:16:30;9.15;;;5.13;;
15240;SDS011;7723;52.170;9.978;2022-10-23T03:18:57;8.23;;;4.65;;
15240;SDS011;7723;52.170;9.978;2022-10-23T03:21:25;7.85;;;3.90;;
15240;SDS011;7723;52.170;9.978;2022-10-23T03:23:52;10.10;;;4.18;;
15240;SDS011;7723;52.170;9.978;2022-10-23T03:26:19;8.45;;;3.90;;
15240;SDS011;7723;52.170;9.978;2022-10-23T03:28:46;6.18;;;3.70;;
15240;SDS011;7723;52.170;9.978;2022-10-23T03:31:15;9.55;;;3.83;;
15240;SDS011;7723;52.170;9.978;2022-10-23T03:33:42;6.53;;;3.72;;
15240;SDS011;7723;52.170;9.978;2022-10-23T03:36:09;9.27;;;3.50;;
15240;SDS011;7723;52.170;9.978;2022-10-23T03:38:36;9.43;;;3.97;;
15240;SDS011;7723;52.170;9.978;2022-10-23T03:41:04;9.52;;;4.30;;
15240;SDS011;7723;52.170;9.978;2022-10-23T03:43:31;7.40;;;4.13;;
15240;SDS011;7723;52.170;9.978;2022-10-23T03:45:58;7.82;;;4.28;;
15240;SDS011;7723;52.170;9.978;2022-10-23T03:48:27;7.10;;;3.75;;
15240;SDS011;7723;52.170;9.978;2022-10-23T03:50:56;6.75;;;3.60;;
15240;SDS011;7723;52.170;9.978;2022-10-23T03:53:23;5.78;;;3.28;;
15240;SDS011;7723;52.170;9.978;2022-10-23T03:55:50;7.05;;;3.42;;
15240;SDS011;7723;52.170;9.978;2022-10-23T03:58:17;4.90;;;3.40;;
15240;SDS011;7723;52.170;9.978;2022-10-23T04:00:44;7.75;;;2.83;;
15240;SDS011;7723;52.170;9.978;2022-10-23T04:03:11;5.70;;;2.78;;
15240;SDS011;7723;52.170;9.978;2022-10-23T04:05:41;5.15;;;3.30;;
15240;SDS011;7723;52.170;9.978;2022-10-23T04:08:08;6.15;;;3.25;;
15240;SDS011;7723;52.170;9.978;2022-10-23T04:10:36;7.30;;;3.55;;
15240;SDS011;7723;52.170;9.978;2022-10-23T04:13:03;7.60;;;3.35;;
15240;SDS011;7723;52.170;9.978;2022-10-23T04:15:30;6.85;;;3.38;;
15240;SDS011;7723;52.170;9.978;2022-10-23T04:17:57;5.32;;;2.88;;
15240;SDS011;7723;52.170;9.978;2022-10-23T04:20:24;5.25;;;2.70;;
15240;SDS011;7723;52.170;9.978;2022-10-23T04:22:53;6.00;;;2.78;;
15240;SDS011;7723;52.170;9.978;2022-10-23T04:25:20;7.03;;;3.47;;
15240;SDS011;7723;52.170;9.978;2022-10-23T04:27:47;6.22;;;3.00;;
15240;SDS011;7723;52.170;9.978;2022-10-23T04:30:14;7.82;;;3.50;;
15240;SDS011;7723;52.170;9.978;2022-10-23T04:32:41;5.47;;;2.78;;
15240;SDS011;7723;52.170;9.978;2022-10-23T04:35:08;3.80;;;2.92;;
15240;SDS011;7723;52.170;9.978;2022-10-23T04:37:35;4.03;;;2.65;;
15240;SDS011;7723;52.170;9.978;2022-10-23T04:40:04;7.88;;;2.75;;
15240;SDS011;7723;52.170;9.978;2022-10-23T04:42:32;8.13;;;2.97;;
15240;SDS011;7723;52.170;9.978;2022-10-23T04:44:59;5.53;;;3.05;;
15240;SDS011;7723;52.170;9.978;2022-10-23T04:47:27;5.88;;;2.80;;
15240;SDS011;7723;52.170;9.978;2022-10-23T04:49:54;9.77;;;3.42;;
15240;SDS011;7723;52.170;9.978;2022-10-23T04:52:21;5.70;;;2.53;;
15240;SDS011;7723;52.170;9.978;2022-10-23T04:54:48;6.32;;;2.75;;
15240;SDS011;7723;52.170;9.978;2022-10-23T04:57:17;6.03;;;3.22;;
15240;SDS011;7723;52.170;9.978;2022-10-23T04:59:44;8.95;;;2.80;;
15240;SDS011;7723;52.170;9.978;2022-10-23T05:02:11;6.65;;;2.53;;
15240;SDS011;7723;52.170;9.978;2022-10-23T05:04:38;6.57;;;3.00;;
15240;SDS011;7723;52.170;9.978;2022-10-23T05:07:06;4.90;;;2.38;;
15240;SDS011;7723;52.170;9.978;2022-10-23T05:09:33;4.88;;;2.53;;
15240;SDS011;7723;52.170;9.978;2022-10-23T05:12:00;4.53;;;3.00;;
15240;SDS011;7723;52.170;9.978;2022-10-23T05:14:29;17.00;;;2.83;;
15240;SDS011;7723;52.170;9.978;2022-10-23T05:16:56;5.72;;;2.70;;
15240;SDS011;7723;52.170;9.978;2022-10-23T05:19:26;4.93;;;2.95;;
15240;SDS011;7723;52.170;9.978;2022-10-23T05:21:56;5.82;;;2.60;;
15240;SDS011;7723;52.170;9.978;2022-10-23T05:24:24;5.43;;;2.45;;
15240;SDS011;7723;52.170;9.978;2022-10-23T05:26:51;7.90;;;2.83;;
15240;SDS011;7723;52.170;9.978;2022-10-23T05:29:19;7.65;;;2.40;;
15240;SDS011;7723;52.170;9.978;2022-10-23T05:31:49;4.63;;;2.47;;
15240;SDS011;7723;52.170;9.978;2022-10-23T05:34:21;3.13;;;1.98;;
15240;SDS011;7723;52.170;9.978;2022-10-23T05:36:50;4.97;;;2.38;;
15240;SDS011;7723;52.170;9.978;2022-10-23T05:39:18;6.13;;;2.45;;
15240;SDS011;7723;52.170;9.978;2022-10-23T05:41:45;5.40;;;2.60;;
15240;SDS011;7723;52.170;9.978;2022-10-23T05:44:12;5.70;;;2.42;;
15240;SDS011;7723;52.170;9.978;2022-10-23T05:46:40;4.60;;;2.45;;
15240;SDS011;7723;52.170;9.978;2022-10-23T05:49:09;5.38;;;2.40;;
15240;SDS011;7723;52.170;9.978;2022-10-23T05:51:36;5.47;;;1.98;;
15240;SDS011;7723;52.170;9.978;2022-10-23T05:54:04;4.47;;;2.22;;
15240;SDS011;7723;52.170;9.978;2022-10-23T05:56:32;7.38;;;2.40;;
15240;SDS011;7723;52.170;9.978;2022-10-23T05:59:00;8.27;;;2.45;;
15240;SDS011;7723;52.170;9.978;2022-10-23T06:01:27;3.85;;;2.55;;
15240;SDS011;7723;52.170;9.978;2022-10-23T06:03:54;4.95;;;2.10;;
15240;SDS011;7723;52.170;9.978;2022-10-23T06:06:23;4.95;;;2.33;;
15240;SDS011;7723;52.170;9.978;2022-10-23T06:08:50;4.05;;;2.47;;
15240;SDS011;7723;52.170;9.978;2022-10-23T06:11:17;4.00;;;2.33;;
15240;SDS011;7723;52.170;9.978;2022-10-23T06:13:45;6.30;;;2.35;;
15240;SDS011;7723;52.170;9.978;2022-10-23T06:16:13;4.03;;;2.10;;
15240;SDS011;7723;52.170;9.978;2022-10-23T06:18:42;6.97;;;2.97;;
15240;SDS011;7723;52.170;9.978;2022-10-23T06:21:10;4.57;;;3.00;;
15240;SDS011;7723;52.170;9.978;2022-10-23T06:23:39;4.75;;;2.30;;
15240;SDS011;7723;52.170;9.978;2022-10-23T06:26:09;3.47;;;1.70;;
15240;SDS011;7723;52.170;9.978;2022-10-23T06:28:38;5.05;;;2.30;;
15240;SDS011;7723;52.170;9.978;2022-10-23T06:31:05;6.30;;;3.17;;
15240;SDS011;7723;52.170;9.978;2022-10-23T06:33:33;6.35;;;2.28;;
15240;SDS011;7723;52.170;9.978;2022-10-23T06:36:01;4.88;;;2.45;;
15240;SDS011;7723;52.170;9.978;2022-10-23T06:38:30;3.78;;;2.40;;
15240;SDS011;7723;52.170;9.978;2022-10-23T06:41:02;5.45;;;2.22;;
15240;SDS011;7723;52.170;9.978;2022-10-23T06:43:30;5.47;;;2.25;;
15240;SDS011;7723;52.170;9.978;2022-10-23T06:45:59;3.92;;;1.83;;
15240;SDS011;7723;52.170;9.978;2022-10-23T06:48:27;5.13;;;2.22;;
15240;SDS011;7723;52.170;9.978;2022-10-23T06:50:54;5.57;;;2.50;;
15240;SDS011;7723;52.170;9.978;2022-10-23T06:53:21;4.25;;;2.50;;
15240;SDS011;7723;52.170;9.978;2022-10-23T06:55:49;4.05;;;1.95;;
15240;SDS011;7723;52.170;9.978;2022-10-23T06:58:17;6.78;;;2.45;;
15240;SDS011;7723;52.170;9.978;2022-10-23T07:00:45;3.33;;;2.00;;
15240;SDS011;7723;52.170;9.978;2022-10-23T07:03:12;6.30;;;2.40;;
15240;SDS011;7723;52.170;9.978;2022-10-23T07:05:39;4.93;;;2.42;;
15240;SDS011;7723;52.170;9.978;2022-10-23T07:08:09;9.38;;;2.83;;
15240;SDS011;7723;52.170;9.978;2022-10-23T07:10:36;3.55;;;2.10;;
15240;SDS011;7723;52.170;9.978;2022-10-23T07:13:04;4.30;;;2.10;;
15240;SDS011;7723;52.170;9.978;2022-10-23T07:15:34;10.95;;;2.35;;
15240;SDS011;7723;52.170;9.978;2022-10-23T07:18:01;5.85;;;2.10;;
15240;SDS011;7723;52.170;9.978;2022-10-23T07:20:29;3.85;;;1.92;;
15240;SDS011;7723;52.170;9.978;2022-10-23T07:22:56;4.55;;;1.70;;
15240;SDS011;7723;52.170;9.978;2022-10-23T07:25:24;4.20;;;2.00;;
15240;SDS011;7723;52.170;9.978;2022-10-23T07:27:52;4.55;;;1.95;;
15240;SDS011;7723;52.170;9.978;2022-10-23T07:30:20;3.85;;;1.85;;
15240;SDS011;7723;52.170;9.978;2022-10-23T07:32:49;3.72;;;1.77;;
15240;SDS011;7723;52.170;9.978;2022-10-23T07:35:17;3.72;;;1.95;;
15240;SDS011;7723;52.170;9.978;2022-10-23T07:37:44;9.57;;;1.83;;
15240;SDS011;7723;52.170;9.978;2022-10-23T07:40:12;3.30;;;1.50;;
15240;SDS011;7723;52.170;9.978;2022-10-23T07:42:41;3.80;;;1.63;;
15240;SDS011;7723;52.170;9.978;2022-10-23T07:45:08;3.13;;;1.50;;
15240;SDS011;7723;52.170;9.978;2022-10-23T07:47:36;5.03;;;1.63;;
15240;SDS011;7723;52.170;9.978;2022-10-23T07:50:06;5.28;;;1.73;;
15240;SDS011;7723;52.170;9.978;2022-10-23T07:52:34;4.22;;;1.80;;
15240;SDS011;7723;52.170;9.978;2022-10-23T07:55:01;2.83;;;1.23;;
15240;SDS011;7723;52.170;9.978;2022-10-23T07:57:29;4.45;;;1.80;;
15240;SDS011;7723;52.170;9.978;2022-10-23T07:59:56;4.90;;;1.27;;
15240;SDS011;7723;52.170;9.978;2022-10-23T08:02:23;3.60;;;1.58;;
15240;SDS011;7723;52.170;9.978;2022-10-23T08:04:50;3.95;;;1.52;;
15240;SDS011;7723;52.170;9.978;2022-10-23T08:07:19;3.75;;;1.25;;
15240;SDS011;7723;52.170;9.978;2022-10-23T08:09:46;4.38;;;1.40;;
15240;SDS011;7723;52.170;9.978;2022-10-23T08:12:13;2.05;;;1.05;;
15240;SDS011;7723;52.170;9.978;2022-10-23T08:14:40;5.55;;;1.40;;
15240;SDS011;7723;52.170;9.978;2022-10-23T08:17:08;3.83;;;1.33;;
15240;SDS011;7723;52.170;9.978;2022-10-23T08:19:35;3.63;;;1.20;;
15240;SDS011;7723;52.170;9.978;2022-10-23T08:22:02;1.15;;;0.95;;
15240;SDS011;7723;52.170;9.978;2022-10-23T08:24:31;3.90;;;1.35;;
15240;SDS011;7723;52.170;9.978;2022-10-23T08:26:58;5.03;;;1.30;;
15240;SDS011;7723;52.170;9.978;2022-10-23T08:29:25;4.40;;;1.10;;
15240;SDS011;7723;52.170;9.978;2022-10-23T08:31:53;9.25;;;1.63;;
15240;SDS011;7723;52.170;9.978;2022-10-23T08:34:21;2.97;;;1.38;;
15240;SDS011;7723;52.170;9.978;2022-10-23T08:36:49;1.38;;;1.10;;
15240;SDS011;7723;52.170;9.978;2022-10-23T08:39:16;2.15;;;1.00;;
15240;SDS011;7723;52.170;9.978;2022-10-23T08:41:48;4.30;;;1.15;;
15240;SDS011;7723;52.170;9.978;2022-10-23T08:44:18;2.53;;;1.08;;
15240;SDS011;7723;52.170;9.978;2022-10-23T08:46:50;4.57;;;1.10;;
15240;SDS011;7723;52.170;9.978;2022-10-23T08:49:26;3.40;;;1.30;;
15240;SDS011;7723;52.170;9.978;2022-10-23T08:52:08;1.98;;;1.00;;
15240;SDS011;7723;52.170;9.978;2022-10-23T08:54:52;4.13;;;1.27;;
15240;SDS011;7723;52.170;9.978;2022-10-23T08:57:27;2.25;;;1.20;;
15240;SDS011;7723;52.170;9.978;2022-10-23T08:59:59;9.23;;;1.40;;
15240;SDS011;7723;52.170;9.978;2022-10-23T09:02:31;2.50;;;0.98;;
15240;SDS011;7723;52.170;9.978;2022-10-23T09:05:05;4.65;;;1.50;;
15240;SDS011;7723;52.170;9.978;2022-10-23T09:07:41;1.50;;;0.90;;
15240;SDS011;7723;52.170;9.978;2022-10-23T09:10:21;2.78;;;0.98;;
15240;SDS011;7723;52.170;9.978;2022-10-23T09:16:02;2.08;;;1.38;;
15240;SDS011;7723;52.170;9.978;2022-10-23T09:18:39;2.90;;;1.38;;
15240;SDS011;7723;52.170;9.978;2022-10-23T09:21:08;3.55;;;1.10;;
15240;SDS011;7723;52.170;9.978;2022-10-23T09:23:36;3.05;;;1.30;;
15240;SDS011;7723;52.170;9.978;2022-10-23T09:26:05;2.83;;;1.10;;
15240;SDS011;7723;52.170;9.978;2022-10-23T09:28:42;2.42;;;1.00;;
15240;SDS011;7723;52.170;9.978;2022-10-23T09:31:13;2.13;;;1.10;;
15240;SDS011;7723;52.170;9.978;2022-10-23T09:33:40;3.65;;;1.33;;
15240;SDS011;7723;52.170;9.978;2022-10-23T09:36:19;3.35;;;1.50;;
15240;SDS011;7723;52.170;9.978;2022-10-23T09:38:49;2.60;;;1.48;;
15240;SDS011;7723;52.170;9.978;2022-10-23T09:41:18;2.40;;;1.10;;
15240;SDS011;7723;52.170;9.978;2022-10-23T09:43:57;2.13;;;1.25;;
15240;SDS011;7723;52.170;9.978;2022-10-23T09:46:35;5.85;;;1.70;;
15240;SDS011;7723;52.170;9.978;2022-10-23T09:49:03;3.53;;;1.27;;
15240;SDS011;7723;52.170;9.978;2022-10-23T09:51:31;1.92;;;1.05;;
15240;SDS011;7723;52.170;9.978;2022-10-23T09:53:59;4.65;;;1.25;;
15240;SDS011;7723;52.170;9.978;2022-10-23T09:56:27;2.25;;;0.93;;
15240;SDS011;7723;52.170;9.978;2022-10-23T09:58:58;2.25;;;1.33;;
15240;SDS011;7723;52.170;9.978;2022-10-23T10:01:28;2.35;;;1.23;;
15240;SDS011;7723;52.170;9.978;2022-10-23T10:03:57;2.85;;;1.15;;
15240;SDS011;7723;52.170;9.978;2022-10-23T10:06:25;1.63;;;0.93;;
15240;SDS011;7723;52.170;9.978;2022-10-23T10:08:54;3.33;;;1.27;;
15240;SDS011;7723;52.170;9.978;2022-10-23T10:11:25;2.60;;;0.93;;
15240;SDS011;7723;52.170;9.978;2022-10-23T10:14:04;5.07;;;1.23;;
15240;SDS011;7723;52.170;9.978;2022-10-23T10:16:46;3.13;;;1.20;;
15240;SDS011;7723;52.170;9.978;2022-10-23T10:19:26;2.22;;;1.40;;
15240;SDS011;7723;52.170;9.978;2022-10-23T10:22:02;1.75;;;1.10;;
15240;SDS011;7723;52.170;9.978;2022-10-23T10:24:39;2.58;;;0.85;;
15240;SDS011;7723;52.170;9.978;2022-10-23T10:27:15;2.38;;;1.20;;
15240;SDS011;7723;52.170;9.978;2022-10-23T10:30:00;1.90;;;1.08;;
15240;SDS011;7723;52.170;9.978;2022-10-23T10:32:35;2.03;;;1.10;;
15240;SDS011;7723;52.170;9.978;2022-10-23T10:35:14;2.60;;;1.13;;
15240;SDS011;7723;52.170;9.978;2022-10-23T10:40:53;8.18;;;1.25;;
15240;SDS011;7723;52.170;9.978;2022-10-23T10:43:42;1.77;;;1.10;;
15240;SDS011;7723;52.170;9.978;2022-10-23T10:46:20;6.75;;;1.35;;
15240;SDS011;7723;52.170;9.978;2022-10-23T10:48:58;1.20;;;1.10;;
15240;SDS011;7723;52.170;9.978;2022-10-23T10:51:28;2.05;;;1.10;;
15240;SDS011;7723;52.170;9.978;2022-10-23T10:54:03;5.22;;;1.52;;
15240;SDS011;7723;52.170;9.978;2022-10-23T10:56:40;1.08;;;0.98;;
15240;SDS011;7723;52.170;9.978;2022-10-23T10:59:11;3.80;;;1.10;;
15240;SDS011;7723;52.170;9.978;2022-10-23T11:01:44;2.08;;;1.02;;
15240;SDS011;7723;52.170;9.978;2022-10-23T11:04:17;1.13;;;0.73;;
15240;SDS011;7723;52.170;9.978;2022-10-23T11:06:51;3.10;;;1.30;;
15240;SDS011;7723;52.170;9.978;2022-10-23T11:09:21;5.22;;;1.50;;
15240;SDS011;7723;52.170;9.978;2022-10-23T11:11:52;2.72;;;1.25;;
15240;SDS011;7723;52.170;9.978;2022-10-23T11:14:20;3.30;;;1.30;;
15240;SDS011;7723;52.170;9.978;2022-10-23T11:16:50;3.40;;;1.50;;
15240;SDS011;7723;52.170;9.978;2022-10-23T11:19:19;3.03;;;1.13;;
15240;SDS011;7723;52.170;9.978;2022-10-23T11:21:54;3.45;;;1.70;;
15240;SDS011;7723;52.170;9.978;2022-10-23T11:24:34;2.55;;;1.20;;
15240;SDS011;7723;52.170;9.978;2022-10-23T11:27:41;4.65;;;1.30;;
15240;SDS011;7723;52.170;9.978;2022-10-23T11:30:23;2.33;;;1.42;;
15240;SDS011;7723;52.170;9.978;2022-10-23T11:33:22;3.05;;;1.48;;
15240;SDS011;7723;52.170;9.978;2022-10-23T11:36:05;6.43;;;1.45;;
15240;SDS011;7723;52.170;9.978;2022-10-23T11:38:39;2.33;;;1.08;;
15240;SDS011;7723;52.170;9.978;2022-10-23T11:41:15;1.98;;;1.10;;
15240;SDS011;7723;52.170;9.978;2022-10-23T11:43:48;1.92;;;1.30;;
15240;SDS011;7723;52.170;9.978;2022-10-23T11:46:27;3.28;;;1.30;;
15240;SDS011;7723;52.170;9.978;2022-10-23T11:49:01;2.83;;;1.02;;
15240;SDS011;7723;52.170;9.978;2022-10-23T11:51:31;2.33;;;1.08;;
15240;SDS011;7723;52.170;9.978;2022-10-23T11:54:06;2.72;;;1.15;;
15240;SDS011;7723;52.170;9.978;2022-10-23T11:56:53;1.30;;;0.90;;
15240;SDS011;7723;52.170;9.978;2022-10-23T11:59:29;3.50;;;0.98;;
15240;SDS011;7723;52.170;9.978;2022-10-23T12:01:59;1.90;;;1.23;;
15240;SDS011;7723;52.170;9.978;2022-10-23T12:04:32;3.92;;;1.10;;
15240;SDS011;7723;52.170;9.978;2022-10-23T12:07:13;1.77;;;1.05;;
15240;SDS011;7723;52.170;9.978;2022-10-23T12:09:43;4.47;;;1.20;;
15240;SDS011;7723;52.170;9.978;2022-10-23T12:12:24;2.20;;;1.20;;
15240;SDS011;7723;52.170;9.978;2022-10-23T12:15:04;1.15;;;1.00;;
15240;SDS011;7723;52.170;9.978;2022-10-23T12:17:33;2.03;;;1.13;;
15240;SDS011;7723;52.170;9.978;2022-10-23T12:20:20;2.42;;;1.10;;
15240;SDS011;7723;52.170;9.978;2022-10-23T12:22:56;1.25;;;0.98;;
15240;SDS011;7723;52.170;9.978;2022-10-23T12:25:51;4.20;;;1.35;;
15240;SDS011;7723;52.170;9.978;2022-10-23T12:28:33;3.80;;;1.10;;
15240;SDS011;7723;52.170;9.978;2022-10-23T12:31:14;2.75;;;1.20;;
15240;SDS011;7723;52.170;9.978;2022-10-23T12:33:56;1.73;;;1.10;;
15240;SDS011;7723;52.170;9.978;2022-10-23T12:36:38;3.28;;;1.45;;
15240;SDS011;7723;52.170;9.978;2022-10-23T12:39:25;1.70;;;1.10;;
15240;SDS011;7723;52.170;9.978;2022-10-23T12:41:53;2.13;;;1.00;;
15240;SDS011;7723;52.170;9.978;2022-10-23T12:44:21;4.20;;;1.25;;
15240;SDS011;7723;52.170;9.978;2022-10-23T12:46:50;1.45;;;1.27;;
15240;SDS011;7723;52.170;9.978;2022-10-23T12:49:20;2.10;;;1.20;;
15240;SDS011;7723;52.170;9.978;2022-10-23T12:51:55;2.88;;;1.17;;
15240;SDS011;7723;52.170;9.978;2022-10-23T12:54:24;4.05;;;1.67;;
15240;SDS011;7723;52.170;9.978;2022-10-23T12:56:52;2.28;;;0.90;;
15240;SDS011;7723;52.170;9.978;2022-10-23T12:59:20;1.30;;;1.10;;
15240;SDS011;7723;52.170;9.978;2022-10-23T13:01:51;3.65;;;1.70;;
15240;SDS011;7723;52.170;9.978;2022-10-23T13:04:25;1.65;;;1.10;;
15240;SDS011;7723;52.170;9.978;2022-10-23T13:06:57;2.28;;;1.02;;
15240;SDS011;7723;52.170;9.978;2022-10-23T13:09:27;3.70;;;1.20;;
15240;SDS011;7723;52.170;9.978;2022-10-23T13:11:56;2.30;;;1.10;;
15240;SDS011;7723;52.170;9.978;2022-10-23T13:14:30;3.47;;;1.13;;
15240;SDS011;7723;52.170;9.978;2022-10-23T13:17:01;1.63;;;0.90;;
15240;SDS011;7723;52.170;9.978;2022-10-23T13:19:30;2.53;;;1.00;;
15240;SDS011;7723;52.170;9.978;2022-10-23T13:21:59;1.13;;;0.93;;
15240;SDS011;7723;52.170;9.978;2022-10-23T13:24:28;1.70;;;0.95;;
15240;SDS011;7723;52.170;9.978;2022-10-23T13:26:56;3.05;;;1.13;;
15240;SDS011;7723;52.170;9.978;2022-10-23T13:29:25;1.52;;;1.00;;
15240;SDS011;7723;52.170;9.978;2022-10-23T13:31:54;1.20;;;1.00;;
15240;SDS011;7723;52.170;9.978;2022-10-23T13:34:23;1.95;;;0.80;;
15240;SDS011;7723;52.170;9.978;2022-10-23T13:36:57;1.85;;;1.10;;
15240;SDS011;7723;52.170;9.978;2022-10-23T13:39:28;2.53;;;1.30;;
15240;SDS011;7723;52.170;9.978;2022-10-23T13:41:58;1.77;;;1.30;;
15240;SDS011;7723;52.170;9.978;2022-10-23T13:44:31;3.45;;;1.10;;
15240;SDS011;7723;52.170;9.978;2022-10-23T13:47:01;5.40;;;1.05;;
15240;SDS011;7723;52.170;9.978;2022-10-23T13:49:28;1.65;;;0.80;;
15240;SDS011;7723;52.170;9.978;2022-10-23T13:51:56;3.15;;;1.30;;
15240;SDS011;7723;52.170;9.978;2022-10-23T13:54:25;2.03;;;1.42;;
15240;SDS011;7723;52.170;9.978;2022-10-23T13:56:53;1.20;;;0.90;;
15240;SDS011;7723;52.170;9.978;2022-10-23T13:59:22;2.17;;;1.00;;
15240;SDS011;7723;52.170;9.978;2022-10-23T14:01:49;2.25;;;0.98;;
15240;SDS011;7723;52.170;9.978;2022-10-23T14:04:17;2.28;;;1.10;;
15240;SDS011;7723;52.170;9.978;2022-10-23T14:06:44;2.10;;;1.00;;
15240;SDS011;7723;52.170;9.978;2022-10-23T14:09:12;5.03;;;1.30;;
15240;SDS011;7723;52.170;9.978;2022-10-23T14:11:42;3.40;;;1.30;;
15240;SDS011;7723;52.170;9.978;2022-10-23T14:14:10;2.55;;;1.10;;
15240;SDS011;7723;52.170;9.978;2022-10-23T14:16:37;5.05;;;1.58;;
15240;SDS011;7723;52.170;9.978;2022-10-23T14:19:04;4.00;;;1.33;;
15240;SDS011;7723;52.170;9.978;2022-10-23T14:21:32;3.33;;;1.60;;
15240;SDS011;7723;52.170;9.978;2022-10-23T14:23:59;3.80;;;1.40;;
15240;SDS011;7723;52.170;9.978;2022-10-23T14:26:27;1.58;;;1.30;;
15240;SDS011;7723;52.170;9.978;2022-10-23T14:28:56;2.58;;;1.23;;
15240;SDS011;7723;52.170;9.978;2022-10-23T14:31:24;2.53;;;1.20;;
15240;SDS011;7723;52.170;9.978;2022-10-23T14:33:52;2.25;;;1.20;;
15240;SDS011;7723;52.170;9.978;2022-10-23T14:36:20;2.42;;;1.33;;
15240;SDS011;7723;52.170;9.978;2022-10-23T14:38:47;2.95;;;1.20;;
15240;SDS011;7723;52.170;9.978;2022-10-23T14:41:15;1.33;;;1.23;;
15240;SDS011;7723;52.170;9.978;2022-10-23T14:43:43;2.22;;;1.20;;
15240;SDS011;7723;52.170;9.978;2022-10-23T14:46:13;1.20;;;1.10;;
15240;SDS011;7723;52.170;9.978;2022-10-23T14:48:42;1.63;;;1.13;;
15240;SDS011;7723;52.170;9.978;2022-10-23T14:51:14;2.58;;;1.10;;
15240;SDS011;7723;52.170;9.978;2022-10-23T14:53:43;1.70;;;1.00;;
15240;SDS011;7723;52.170;9.978;2022-10-23T14:56:11;1.75;;;1.15;;
15240;SDS011;7723;52.170;9.978;2022-10-23T14:58:38;2.80;;;1.10;;
15240;SDS011;7723;52.170;9.978;2022-10-23T15:01:07;1.85;;;1.27;;
15240;SDS011;7723;52.170;9.978;2022-10-23T15:03:36;3.35;;;1.35;;
15240;SDS011;7723;52.170;9.978;2022-10-23T15:06:04;1.80;;;1.17;;
15240;SDS011;7723;52.170;9.978;2022-10-23T15:08:32;1.42;;;1.00;;
15240;SDS011;7723;52.170;9.978;2022-10-23T15:11:00;1.20;;;1.08;;
15240;SDS011;7723;52.170;9.978;2022-10-23T15:13:28;6.03;;;1.83;;
15240;SDS011;7723;52.170;9.978;2022-10-23T15:16:03;2.05;;;1.20;;
15240;SDS011;7723;52.170;9.978;2022-10-23T15:18:31;3.33;;;1.20;;
15240;SDS011;7723;52.170;9.978;2022-10-23T15:21:01;2.13;;;1.38;;
15240;SDS011;7723;52.170;9.978;2022-10-23T15:23:30;2.47;;;1.00;;
15240;SDS011;7723;52.170;9.978;2022-10-23T15:25:59;6.05;;;1.70;;
15240;SDS011;7723;52.170;9.978;2022-10-23T15:28:28;3.50;;;1.30;;